Time;durP1;ratioP1;P1;durP2;ratioP2;P2;SDS_P1;SDS_P2;PMS_P1;PMS_P2;Temp;Humidity;BMP_temperature;BMP_pressure;BME280_temperature;BME280_humidity;BME280_pressure;Samples;Min_cycle;Max_cycle;Signal;HPM_P1;HPM_P2
2022/06/11 00:00:36;;;;;;;;;;;21.80;58.60;;;;;;5047021;28;20167;-70
2022/06/11 00:03:03;;;;;;;;;;;21.80;58.80;;;;;;5039542;28;19928;-69
2022/06/11 00:05:31;;;;;;;;;;;21.80;59.00;;;;;;5045493;28;19929;-71
2022/06/11 00:07:58;;;;;;;;;;;21.70;59.10;;;;;;5041944;28;19932;-68
2022/06/11 00:10:25;;;;;;;;;;;21.70;59.30;;;;;;5044891;28;20028;-69
2022/06/11 00:12:51;;;;;;;;;;;21.70;59.40;;;;;;5041548;28;19937;-69
2022/06/11 00:15:18;;;;;;;;;;;21.60;59.50;;;;;;5043973;28;20396;-68
2022/06/11 00:17:45;;;;;;;;;;;21.60;59.70;;;;;;5043917;28;19951;-70
2022/06/11 00:20:12;;;;;;;;;;;21.50;59.80;;;;;;5041455;28;19925;-68
2022/06/11 00:22:41;;;;;;;;;;;21.50;60.10;;;;;;5044126;28;20392;-70
2022/06/11 00:25:07;;;;;;;;;;;21.50;60.10;;;;;;5044045;28;19933;-70
2022/06/11 00:27:35;;;;;;;;;;;21.50;60.10;;;;;;5044657;28;19948;-69
2022/06/11 00:30:01;;;;;;;;;;;21.40;60.30;;;;;;5040364;28;20475;-70
2022/06/11 00:32:28;;;;;;;;;;;21.40;60.40;;;;;;5042574;28;20031;-70
2022/06/11 00:34:58;;;;;;;;;;;21.30;60.80;;;;;;5044526;28;19932;-71
2022/06/11 00:37:25;;;;;;;;;;;21.30;60.60;;;;;;5041661;28;20377;-68
2022/06/11 00:39:53;;;;;;;;;;;21.30;60.60;;;;;;5041516;28;19936;-72
2022/06/11 00:42:22;;;;;;;;;;;21.20;60.70;;;;;;5043266;28;19986;-70
2022/06/11 00:44:49;;;;;;;;;;;21.20;61.00;;;;;;5044154;28;19928;-68
2022/06/11 00:47:18;;;;;;;;;;;21.10;61.10;;;;;;5040170;28;19928;-70
2022/06/11 00:49:47;;;;;;;;;;;21.10;61.10;;;;;;5044558;28;19972;-72
2022/06/11 00:52:16;;;;;;;;;;;21.00;61.20;;;;;;5043270;28;19925;-70
2022/06/11 00:54:44;;;;;;;;;;;21.00;61.30;;;;;;5040029;28;20796;-67
2022/06/11 00:57:12;;;;;;;;;;;20.90;61.40;;;;;;5040556;28;19929;-67
2022/06/11 00:59:41;;;;;;;;;;;20.90;61.50;;;;;;5038845;28;19936;-70
2022/06/11 01:02:08;;;;;;;;;;;20.90;61.50;;;;;;5042027;28;19936;-71
2022/06/11 01:04:41;;;;;;;;;;;20.80;61.40;;;;;;5042144;28;19933;-70
2022/06/11 01:07:14;;;;;;;;;;;20.80;61.60;;;;;;5041719;28;19939;-67
2022/06/11 01:09:45;;;;;;;;;;;20.80;61.60;;;;;;5040025;28;19933;-68
2022/06/11 01:12:18;;;;;;;;;;;20.70;61.60;;;;;;5042211;28;19935;-68
2022/06/11 01:14:46;;;;;;;;;;;20.70;61.80;;;;;;5040141;28;19936;-71
2022/06/11 01:17:21;;;;;;;;;;;20.70;62.00;;;;;;5039054;28;19990;-69
2022/06/11 01:19:59;;;;;;;;;;;20.60;62.10;;;;;;5039314;28;20267;-69
2022/06/11 01:22:35;;;;;;;;;;;20.60;62.20;;;;;;5040919;28;19944;-68
2022/06/11 01:25:07;;;;;;;;;;;20.50;62.30;;;;;;5042959;28;20422;-70
2022/06/11 01:27:42;;;;;;;;;;;20.50;62.40;;;;;;5040083;28;20340;-67
2022/06/11 01:30:14;;;;;;;;;;;20.40;62.50;;;;;;5041794;28;19928;-70
2022/06/11 01:32:43;;;;;;;;;;;20.40;62.80;;;;;;5040801;28;19932;-67
2022/06/11 01:35:24;;;;;;;;;;;20.40;62.90;;;;;;5043189;28;19929;-68
2022/06/11 01:37:53;;;;;;;;;;;20.30;63.00;;;;;;5038376;28;19929;-71
2022/06/11 01:40:24;;;;;;;;;;;20.30;62.90;;;;;;5042803;28;19929;-67
2022/06/11 01:42:53;;;;;;;;;;;20.30;62.90;;;;;;5043929;28;20355;-70
2022/06/11 01:45:22;;;;;;;;;;;20.30;63.00;;;;;;5042069;28;19940;-68
2022/06/11 01:47:49;;;;;;;;;;;20.20;62.90;;;;;;5038462;28;19928;-69
2022/06/11 01:50:16;;;;;;;;;;;20.20;63.10;;;;;;5043427;28;19940;-70
2022/06/11 01:52:52;;;;;;;;;;;20.10;63.10;;;;;;5039419;28;19928;-70
2022/06/11 01:55:24;;;;;;;;;;;20.10;63.30;;;;;;5040875;28;19928;-68
2022/06/11 01:57:59;;;;;;;;;;;20.10;63.30;;;;;;5042772;28;19929;-69
2022/06/11 02:00:29;;;;;;;;;;;20.00;63.30;;;;;;5042262;28;20035;-68
2022/06/11 02:03:02;;;;;;;;;;;20.00;64.10;;;;;;5037244;28;19929;-70
2022/06/11 02:05:35;;;;;;;;;;;20.00;63.50;;;;;;5040426;28;20044;-72
2022/06/11 02:08:07;;;;;;;;;;;19.90;63.40;;;;;;5042523;28;19936;-72
2022/06/11 02:10:36;;;;;;;;;;;19.90;63.50;;;;;;5041719;28;20418;-69
2022/06/11 02:13:06;;;;;;;;;;;19.90;63.70;;;;;;5039456;28;19945;-69
2022/06/11 02:15:36;;;;;;;;;;;19.90;63.90;;;;;;5041024;28;19936;-69
2022/06/11 02:18:05;;;;;;;;;;;19.80;64.00;;;;;;5038926;28;19940;-71
2022/06/11 02:20:35;;;;;;;;;;;19.80;64.10;;;;;;5039533;28;19932;-67
2022/06/11 02:23:03;;;;;;;;;;;19.80;64.00;;;;;;5041596;28;19929;-69
2022/06/11 02:25:32;;;;;;;;;;;19.70;64.00;;;;;;5041245;28;19929;-67
2022/06/11 02:28:00;;;;;;;;;;;19.70;64.10;;;;;;5041419;28;19940;-68
2022/06/11 02:30:28;;;;;;;;;;;19.70;64.10;;;;;;5039811;28;19931;-70
2022/06/11 02:32:56;;;;;;;;;;;19.60;64.00;;;;;;5041672;28;19936;-69
2022/06/11 02:35:28;;;;;;;;;;;19.60;64.10;;;;;;5040765;28;20030;-71
2022/06/11 02:37:55;;;;;;;;;;;19.60;64.20;;;;;;5042501;28;20017;-69
2022/06/11 02:40:24;;;;;;;;;;;19.60;64.30;;;;;;5040682;28;20540;-69
2022/06/11 02:42:50;;;;;;;;;;;19.60;64.40;;;;;;5039234;28;19925;-69
2022/06/11 02:45:17;;;;;;;;;;;19.50;64.30;;;;;;5039900;28;19929;-70
2022/06/11 02:47:45;;;;;;;;;;;19.50;64.40;;;;;;5041409;28;20663;-73
2022/06/11 02:50:17;;;;;;;;;;;19.50;64.50;;;;;;5041317;28;20007;-68
2022/06/11 02:52:43;;;;;;;;;;;19.40;64.60;;;;;;5043222;28;19928;-69
2022/06/11 02:55:10;;;;;;;;;;;19.50;64.70;;;;;;5040897;28;20040;-70
2022/06/11 02:57:37;;;;;;;;;;;19.40;64.90;;;;;;5041523;28;19935;-69
2022/06/11 03:00:05;;;;;;;;;;;19.40;65.10;;;;;;5040806;28;20014;-71
2022/06/11 03:02:32;;;;;;;;;;;19.30;65.20;;;;;;5040899;28;20400;-68
2022/06/11 03:04:58;;;;;;;;;;;19.30;65.10;;;;;;5041093;28;19933;-71
2022/06/11 03:07:26;;;;;;;;;;;19.20;65.00;;;;;;5041901;28;19928;-71
2022/06/11 03:09:53;;;;;;;;;;;19.20;65.10;;;;;;5041845;28;19938;-69
2022/06/11 03:12:19;;;;;;;;;;;19.20;65.20;;;;;;5034943;28;19932;-67
2022/06/11 03:14:47;;;;;;;;;;;19.20;65.30;;;;;;5041293;28;20022;-70
2022/06/11 03:17:14;;;;;;;;;;;19.10;65.30;;;;;;5039868;28;20036;-70
2022/06/11 03:19:41;;;;;;;;;;;19.10;65.60;;;;;;5037144;28;19984;-68
2022/06/11 03:22:08;;;;;;;;;;;19.10;65.70;;;;;;5040139;28;19933;-71
2022/06/11 03:24:36;;;;;;;;;;;19.10;65.80;;;;;;5040883;28;19933;-68
2022/06/11 03:27:03;;;;;;;;;;;19.00;65.70;;;;;;5041226;28;19933;-70
2022/06/11 03:29:30;;;;;;;;;;;19.00;65.90;;;;;;5038836;28;19933;-72
2022/06/11 03:31:56;;;;;;;;;;;18.90;65.80;;;;;;5037383;28;19936;-70
2022/06/11 03:34:23;;;;;;;;;;;18.90;66.00;;;;;;5039743;28;20451;-69
2022/06/11 03:36:52;;;;;;;;;;;18.90;66.00;;;;;;5041717;28;19928;-69
2022/06/11 03:39:18;;;;;;;;;;;18.90;66.10;;;;;;5039891;28;19936;-69
2022/06/11 03:41:47;;;;;;;;;;;18.90;66.10;;;;;;5039648;28;19932;-70
2022/06/11 03:44:13;;;;;;;;;;;18.90;66.20;;;;;;5040638;28;19925;-68
2022/06/11 03:46:40;;;;;;;;;;;18.80;66.10;;;;;;5039722;28;19929;-69
2022/06/11 03:49:07;;;;;;;;;;;18.80;66.10;;;;;;5042052;28;19929;-72
2022/06/11 03:51:33;;;;;;;;;;;18.70;66.10;;;;;;5039825;28;19932;-69
2022/06/11 03:54:00;;;;;;;;;;;18.70;66.30;;;;;;5042266;28;19924;-71
2022/06/11 03:56:26;;;;;;;;;;;18.70;66.40;;;;;;5037559;28;20377;-70
2022/06/11 03:58:54;;;;;;;;;;;18.70;66.40;;;;;;5039675;28;19929;-70
2022/06/11 04:01:23;;;;;;;;;;;18.60;66.40;;;;;;5039377;28;19932;-69
2022/06/11 04:03:51;;;;;;;;;;;18.60;66.40;;;;;;5038259;28;19990;-68
2022/06/11 04:06:19;;;;;;;;;;;18.60;66.60;;;;;;5036736;28;19932;-70
2022/06/11 04:08:46;;;;;;;;;;;18.50;66.60;;;;;;5036328;28;20242;-69
2022/06/11 04:11:13;;;;;;;;;;;18.50;66.80;;;;;;5037143;28;20448;-70
2022/06/11 04:13:41;;;;;;;;;;;18.50;66.90;;;;;;5040144;28;19929;-72
2022/06/11 04:16:17;;;;;;;;;;;18.50;66.90;;;;;;5037377;28;19933;-72
2022/06/11 04:18:44;;;;;;;;;;;18.40;66.80;;;;;;5037222;28;19973;-72
2022/06/11 04:21:12;;;;;;;;;;;18.40;66.80;;;;;;5033417;28;19968;-69
2022/06/11 04:23:40;;;;;;;;;;;18.40;67.00;;;;;;5040620;28;20399;-73
2022/06/11 04:26:09;;;;;;;;;;;18.40;67.10;;;;;;5037019;28;19929;-71
2022/06/11 04:28:36;;;;;;;;;;;18.40;67.20;;;;;;5039695;28;20420;-70
2022/06/11 04:31:04;;;;;;;;;;;18.30;67.10;;;;;;5036449;28;20004;-69
2022/06/11 04:33:32;;;;;;;;;;;18.30;67.30;;;;;;5039442;28;19932;-71
2022/06/11 04:35:59;;;;;;;;;;;18.30;67.30;;;;;;5040065;28;19936;-70
2022/06/11 04:38:25;;;;;;;;;;;18.30;67.40;;;;;;5040363;28;19935;-68
2022/06/11 04:40:52;;;;;;;;;;;18.20;67.40;;;;;;5038733;28;19964;-70
2022/06/11 04:43:19;;;;;;;;;;;18.30;67.60;;;;;;5040412;28;20051;-70
2022/06/11 04:45:46;;;;;;;;;;;18.20;67.60;;;;;;5041318;28;19929;-68
2022/06/11 04:48:13;;;;;;;;;;;18.20;67.70;;;;;;5040765;28;19928;-70
2022/06/11 04:50:41;;;;;;;;;;;18.10;67.70;;;;;;5044114;28;19944;-72
2022/06/11 04:53:07;;;;;;;;;;;18.10;67.70;;;;;;5043122;28;19937;-68
2022/06/11 04:55:34;;;;;;;;;;;18.10;67.80;;;;;;5040374;28;20460;-68
2022/06/11 04:58:01;;;;;;;;;;;18.10;68.70;;;;;;5042506;28;19998;-70
2022/06/11 05:00:29;;;;;;;;;;;18.10;68.00;;;;;;5041657;28;20099;-69
2022/06/11 05:02:56;;;;;;;;;;;18.10;68.10;;;;;;5037662;28;19983;-69
2022/06/11 05:05:23;;;;;;;;;;;18.10;68.20;;;;;;5043610;28;20730;-71
2022/06/11 05:07:52;;;;;;;;;;;18.00;68.20;;;;;;5043863;28;19932;-68
2022/06/11 05:10:20;;;;;;;;;;;18.00;68.30;;;;;;5043679;28;20266;-69
2022/06/11 05:12:46;;;;;;;;;;;18.00;68.40;;;;;;5037745;28;20722;-69
2022/06/11 05:15:14;;;;;;;;;;;18.00;68.40;;;;;;5038648;28;19925;-70
2022/06/11 05:17:41;;;;;;;;;;;18.00;68.40;;;;;;5042656;28;19939;-70
2022/06/11 05:20:08;;;;;;;;;;;18.00;68.50;;;;;;5039695;28;20024;-68
2022/06/11 05:22:35;;;;;;;;;;;18.00;68.60;;;;;;5040284;28;19933;-71
2022/06/11 05:25:03;;;;;;;;;;;17.90;68.50;;;;;;5042493;28;20297;-70
2022/06/11 05:27:30;;;;;;;;;;;18.00;68.60;;;;;;5042287;28;19960;-72
2022/06/11 05:29:59;;;;;;;;;;;18.00;68.60;;;;;;5040346;28;20286;-70
2022/06/11 05:32:27;;;;;;;;;;;18.00;68.70;;;;;;5041330;28;20759;-68
2022/06/11 05:34:54;;;;;;;;;;;18.00;68.70;;;;;;5042894;28;19924;-72
2022/06/11 05:37:21;;;;;;;;;;;17.90;68.60;;;;;;5042887;28;19940;-69
2022/06/11 05:39:48;;;;;;;;;;;18.00;68.70;;;;;;5041149;28;19929;-69
2022/06/11 05:42:16;;;;;;;;;;;18.00;68.80;;;;;;5041413;28;19937;-71
2022/06/11 05:44:43;;;;;;;;;;;18.00;68.80;;;;;;5043024;28;19924;-68
2022/06/11 05:47:11;;;;;;;;;;;18.00;68.80;;;;;;5041592;28;19936;-72
2022/06/11 05:49:38;;;;;;;;;;;18.00;68.90;;;;;;5041561;28;20389;-72
2022/06/11 05:52:07;;;;;;;;;;;18.00;68.90;;;;;;5041801;28;19940;-72
2022/06/11 05:54:35;;;;;;;;;;;18.00;68.90;;;;;;5041899;28;19928;-71
2022/06/11 05:57:04;;;;;;;;;;;18.10;69.00;;;;;;5040356;28;19944;-69
2022/06/11 05:59:35;;;;;;;;;;;18.00;69.00;;;;;;5042004;28;19982;-72
2022/06/11 06:02:03;;;;;;;;;;;18.00;69.00;;;;;;5042839;28;19943;-73
2022/06/11 06:04:30;;;;;;;;;;;18.10;69.10;;;;;;5040013;28;20448;-68
2022/06/11 06:06:57;;;;;;;;;;;18.00;69.10;;;;;;5039021;28;19933;-69
2022/06/11 06:09:23;;;;;;;;;;;18.00;69.10;;;;;;5040769;28;19936;-69
2022/06/11 06:11:50;;;;;;;;;;;18.10;69.20;;;;;;5041964;28;19941;-67
2022/06/11 06:14:16;;;;;;;;;;;18.10;69.40;;;;;;5041733;28;19933;-68
2022/06/11 06:16:44;;;;;;;;;;;18.10;69.50;;;;;;5040373;28;19929;-70
2022/06/11 06:19:11;;;;;;;;;;;18.10;69.50;;;;;;5038030;28;19952;-68
2022/06/11 06:21:37;;;;;;;;;;;18.10;69.50;;;;;;5042339;28;19928;-69
2022/06/11 06:24:04;;;;;;;;;;;18.10;69.40;;;;;;5040557;28;19936;-70
2022/06/11 06:26:31;;;;;;;;;;;18.20;75.00;;;;;;5038473;28;19943;-69
2022/06/11 06:28:58;;;;;;;;;;;18.20;75.30;;;;;;5042422;28;19929;-69
2022/06/11 06:31:24;;;;;;;;;;;18.20;75.00;;;;;;5042051;28;19991;-68
2022/06/11 06:33:53;;;;;;;;;;;18.20;74.30;;;;;;5040176;28;19928;-69
2022/06/11 06:36:20;;;;;;;;;;;18.20;74.00;;;;;;5037734;28;19928;-67
2022/06/11 06:38:46;;;;;;;;;;;18.20;73.70;;;;;;5039585;28;20794;-68
2022/06/11 06:41:13;;;;;;;;;;;18.20;73.50;;;;;;5034970;28;19928;-67
2022/06/11 06:43:40;;;;;;;;;;;18.20;73.20;;;;;;5042631;28;20092;-70
2022/06/11 06:46:06;;;;;;;;;;;18.20;72.80;;;;;;5041638;28;20722;-71
2022/06/11 06:48:33;;;;;;;;;;;18.20;72.60;;;;;;5035911;28;19979;-69
2022/06/11 06:51:01;;;;;;;;;;;18.30;72.40;;;;;;5041557;28;19928;-72
2022/06/11 06:53:28;;;;;;;;;;;18.30;72.10;;;;;;5042705;28;19925;-69
2022/06/11 06:55:55;;;;;;;;;;;18.30;71.90;;;;;;5042154;28;19937;-68
2022/06/11 06:58:22;;;;;;;;;;;18.30;71.80;;;;;;5037405;28;19933;-70
2022/06/11 07:00:48;;;;;;;;;;;18.40;71.60;;;;;;5045183;28;19938;-69
2022/06/11 07:03:15;;;;;;;;;;;18.40;71.40;;;;;;5037434;28;19979;-71
2022/06/11 07:05:43;;;;;;;;;;;18.40;71.30;;;;;;5041553;28;19929;-67
2022/06/11 07:08:11;;;;;;;;;;;18.40;71.00;;;;;;5041361;28;20023;-71
2022/06/11 07:10:38;;;;;;;;;;;18.50;70.80;;;;;;5041644;28;19963;-71
2022/06/11 07:13:04;;;;;;;;;;;18.50;70.60;;;;;;5042465;28;19982;-68
2022/06/11 07:15:31;;;;;;;;;;;18.50;70.50;;;;;;5041479;28;19933;-67
2022/06/11 07:17:59;;;;;;;;;;;18.50;70.50;;;;;;5040178;28;19959;-68
2022/06/11 07:20:28;;;;;;;;;;;18.50;70.30;;;;;;5039152;28;19936;-68
2022/06/11 07:22:56;;;;;;;;;;;18.60;70.50;;;;;;5041028;28;19933;-70
2022/06/11 07:25:24;;;;;;;;;;;18.60;70.30;;;;;;5041981;28;19929;-68
2022/06/11 07:27:52;;;;;;;;;;;18.70;70.10;;;;;;5041072;28;19937;-68
2022/06/11 07:30:20;;;;;;;;;;;18.70;69.90;;;;;;5037454;28;19928;-67
2022/06/11 07:32:48;;;;;;;;;;;18.70;69.60;;;;;;5040392;28;19925;-67
2022/06/11 07:35:16;;;;;;;;;;;18.70;69.50;;;;;;5042214;28;19929;-70
2022/06/11 07:37:44;;;;;;;;;;;18.70;69.40;;;;;;5042081;28;19935;-68
2022/06/11 07:40:11;;;;;;;;;;;18.80;70.10;;;;;;5037560;28;20048;-68
2022/06/11 07:42:39;;;;;;;;;;;18.80;69.20;;;;;;5039897;28;19933;-70
2022/06/11 07:45:06;;;;;;;;;;;18.80;69.10;;;;;;5040757;28;19933;-68
2022/06/11 07:50:16;;;;;;;;;;;18.90;69.20;;;;;;5038726;28;19935;-71
2022/06/11 07:52:43;;;;;;;;;;;18.90;69.10;;;;;;5041538;28;19998;-67
2022/06/11 07:55:10;;;;;;;;;;;19.00;69.10;;;;;;5041364;28;19932;-69
2022/06/11 07:57:38;;;;;;;;;;;19.00;69.00;;;;;;5039489;28;19936;-71
2022/06/11 08:00:08;;;;;;;;;;;19.00;68.80;;;;;;5045033;28;19949;-68
2022/06/11 08:02:35;;;;;;;;;;;19.10;68.80;;;;;;5037719;28;19929;-69
2022/06/11 08:05:01;;;;;;;;;;;19.10;68.70;;;;;;5040353;28;19933;-70
2022/06/11 08:07:29;;;;;;;;;;;19.20;68.60;;;;;;5041864;28;19928;-69
2022/06/11 08:09:57;;;;;;;;;;;19.20;68.40;;;;;;5042094;28;19990;-67
2022/06/11 08:12:24;;;;;;;;;;;19.20;68.30;;;;;;5037795;28;19929;-67
2022/06/11 08:14:50;;;;;;;;;;;19.20;68.20;;;;;;5041357;28;19933;-69
2022/06/11 08:17:18;;;;;;;;;;;19.30;68.20;;;;;;5041706;28;19928;-70
2022/06/11 08:19:45;;;;;;;;;;;19.40;68.10;;;;;;5041286;28;20385;-67
2022/06/11 08:22:11;;;;;;;;;;;19.40;68.00;;;;;;5040516;28;20316;-67
2022/06/11 08:24:38;;;;;;;;;;;19.40;67.70;;;;;;5045689;28;19933;-70
2022/06/11 08:27:05;;;;;;;;;;;19.50;67.80;;;;;;5044614;28;19936;-69
2022/06/11 08:29:31;;;;;;;;;;;19.50;67.70;;;;;;5040234;28;19933;-70
2022/06/11 08:31:58;;;;;;;;;;;19.50;67.60;;;;;;5033654;28;20293;-68
2022/06/11 08:34:26;;;;;;;;;;;19.60;67.60;;;;;;5037980;28;20286;-67
2022/06/11 08:36:52;;;;;;;;;;;19.60;67.50;;;;;;5040436;28;19929;-69
2022/06/11 08:39:19;;;;;;;;;;;19.70;67.50;;;;;;5040688;28;19987;-68
2022/06/11 08:41:45;;;;;;;;;;;19.70;67.50;;;;;;5040252;28;19929;-67
2022/06/11 08:44:13;;;;;;;;;;;19.70;67.40;;;;;;5037953;28;20439;-69
2022/06/11 08:46:41;;;;;;;;;;;19.80;67.50;;;;;;5040031;28;19936;-70
2022/06/11 08:49:10;;;;;;;;;;;19.80;67.40;;;;;;5037133;28;19932;-70
2022/06/11 08:51:42;;;;;;;;;;;19.90;67.30;;;;;;5039607;28;19928;-70
2022/06/11 08:54:11;;;;;;;;;;;19.90;67.20;;;;;;5046658;28;19983;-70
2022/06/11 08:56:40;;;;;;;;;;;20.00;67.10;;;;;;5042737;28;19939;-70
2022/06/11 08:59:12;;;;;;;;;;;20.00;66.80;;;;;;5043195;28;19936;-67
2022/06/11 09:01:44;;;;;;;;;;;20.10;66.70;;;;;;5043739;28;19936;-69
2022/06/11 09:04:19;;;;;;;;;;;20.10;66.40;;;;;;5039364;28;20656;-67
2022/06/11 09:06:55;;;;;;;;;;;20.20;66.00;;;;;;5046114;28;19935;-68
2022/06/11 09:09:27;;;;;;;;;;;20.20;65.80;;;;;;5038168;28;19979;-68
2022/06/11 09:12:02;;;;;;;;;;;20.20;65.70;;;;;;5041508;28;19934;-68
2022/06/11 09:14:34;;;;;;;;;;;20.30;65.70;;;;;;5044322;28;19932;-67
2022/06/11 09:17:07;;;;;;;;;;;20.30;65.40;;;;;;5043672;28;20316;-69
2022/06/11 09:19:42;;;;;;;;;;;20.40;65.40;;;;;;5041301;28;20648;-67
2022/06/11 09:22:29;;;;;;;;;;;20.40;65.10;;;;;;5040623;28;19951;-71
2022/06/11 09:25:07;;;;;;;;;;;20.50;64.80;;;;;;5045046;28;19929;-67
2022/06/11 09:27:36;;;;;;;;;;;20.50;64.50;;;;;;5043467;28;19932;-67
2022/06/11 09:30:05;;;;;;;;;;;20.60;64.40;;;;;;5037350;28;20015;-69
2022/06/11 09:32:34;;;;;;;;;;;20.70;64.30;;;;;;5039947;28;19944;-69
2022/06/11 09:35:04;;;;;;;;;;;20.70;64.10;;;;;;5043651;28;20434;-70
2022/06/11 09:37:35;;;;;;;;;;;20.80;64.00;;;;;;5042614;28;19951;-70
2022/06/11 09:40:07;;;;;;;;;;;20.90;64.00;;;;;;5044035;28;20060;-68
2022/06/11 09:42:42;;;;;;;;;;;20.90;63.60;;;;;;5040721;28;19932;-69
2022/06/11 09:45:14;;;;;;;;;;;21.00;63.20;;;;;;5041573;28;19929;-68
2022/06/11 09:47:45;;;;;;;;;;;21.00;62.50;;;;;;5039420;28;20035;-68
2022/06/11 09:50:18;;;;;;;;;;;21.10;62.10;;;;;;5041750;28;19935;-69
2022/06/11 09:52:50;;;;;;;;;;;21.10;62.00;;;;;;5044244;28;19928;-71
2022/06/11 09:55:22;;;;;;;;;;;21.20;61.50;;;;;;5042232;28;19928;-69
2022/06/11 09:57:53;;;;;;;;;;;21.30;61.10;;;;;;5043348;28;19932;-69
2022/06/11 10:00:23;;;;;;;;;;;21.30;61.00;;;;;;5045061;28;19929;-67
2022/06/11 10:02:57;;;;;;;;;;;21.40;60.80;;;;;;5038377;28;19929;-68
2022/06/11 10:05:26;;;;;;;;;;;21.50;60.40;;;;;;5042076;28;20392;-71
2022/06/11 10:07:57;;;;;;;;;;;21.60;60.30;;;;;;5043209;28;19935;-69
2022/06/11 10:10:25;;;;;;;;;;;21.60;60.20;;;;;;5033910;28;19929;-68
2022/06/11 10:12:55;;;;;;;;;;;21.70;60.00;;;;;;5039721;28;20024;-70
2022/06/11 10:15:23;;;;;;;;;;;21.80;59.90;;;;;;5042821;28;19937;-68
2022/06/11 10:17:53;;;;;;;;;;;21.80;59.70;;;;;;5041925;28;19929;-69
2022/06/11 10:20:22;;;;;;;;;;;21.90;59.40;;;;;;5036482;28;20630;-68
2022/06/11 10:22:51;;;;;;;;;;;22.00;59.30;;;;;;5041535;28;19939;-66
2022/06/11 10:25:23;;;;;;;;;;;22.10;59.10;;;;;;5043030;28;19929;-68
2022/06/11 10:27:52;;;;;;;;;;;22.10;58.70;;;;;;5034321;28;19932;-68
2022/06/11 10:30:26;;;;;;;;;;;22.20;58.80;;;;;;5042343;28;19929;-67
2022/06/11 10:32:54;;;;;;;;;;;22.30;58.60;;;;;;5040997;28;20680;-71
2022/06/11 10:35:22;;;;;;;;;;;22.40;58.10;;;;;;5042100;28;19933;-69
2022/06/11 10:37:51;;;;;;;;;;;22.40;57.90;;;;;;5043190;28;19929;-67
2022/06/11 10:40:22;;;;;;;;;;;22.50;57.90;;;;;;5038306;28;19936;-67
2022/06/11 10:42:52;;;;;;;;;;;22.60;57.80;;;;;;5043286;28;20027;-68
2022/06/11 10:45:19;;;;;;;;;;;22.60;57.70;;;;;;5041008;28;19933;-69
2022/06/11 10:47:47;;;;;;;;;;;22.70;57.20;;;;;;5037356;28;20536;-71
2022/06/11 10:50:21;;;;;;;;;;;22.80;57.20;;;;;;5037947;28;19933;-67
2022/06/11 10:52:49;;;;;;;;;;;22.80;56.90;;;;;;5043776;28;19936;-69
2022/06/11 10:55:18;;;;;;;;;;;22.90;56.90;;;;;;5040609;28;19928;-71
2022/06/11 10:57:49;;;;;;;;;;;23.00;56.60;;;;;;5038513;28;19929;-67
2022/06/11 11:00:18;;;;;;;;;;;23.00;56.50;;;;;;5044826;28;19929;-70
2022/06/11 11:02:48;;;;;;;;;;;23.10;56.50;;;;;;5037816;28;19936;-69
2022/06/11 11:05:18;;;;;;;;;;;23.20;56.40;;;;;;5041730;28;19929;-69
2022/06/11 11:07:50;;;;;;;;;;;23.20;55.60;;;;;;5041654;28;20359;-68
2022/06/11 11:10:20;;;;;;;;;;;23.30;55.50;;;;;;5041744;28;21283;-68
2022/06/11 11:12:50;;;;;;;;;;;23.40;56.10;;;;;;5042505;28;21203;-70
2022/06/11 11:15:18;;;;;;;;;;;23.40;56.00;;;;;;5032961;28;20716;-68
2022/06/11 11:17:46;;;;;;;;;;;23.50;56.00;;;;;;5042481;28;20439;-70
2022/06/11 11:20:37;;;;;;;;;;;23.60;55.60;;;;;;5036353;28;19928;-66
2022/06/11 11:23:14;;;;;;;;;;;23.60;56.00;;;;;;5041406;28;19929;-68
2022/06/11 11:25:41;;;;;;;;;;;23.70;55.40;;;;;;5043540;28;20580;-67
2022/06/11 11:28:17;;;;;;;;;;;23.80;55.80;;;;;;5034187;28;19955;-69
2022/06/11 11:30:44;;;;;;;;;;;23.80;56.20;;;;;;5033247;28;19936;-69
2022/06/11 11:33:24;;;;;;;;;;;23.90;55.40;;;;;;5040536;28;19929;-68
2022/06/11 11:35:59;;;;;;;;;;;24.00;55.20;;;;;;5042246;28;19990;-68
2022/06/11 11:38:27;;;;;;;;;;;24.00;55.10;;;;;;5042166;28;20383;-68
2022/06/11 11:40:55;;;;;;;;;;;24.10;54.80;;;;;;5041750;28;19932;-69
2022/06/11 11:43:24;;;;;;;;;;;24.20;54.90;;;;;;5042915;28;20400;-70
2022/06/11 11:45:56;;;;;;;;;;;24.20;54.60;;;;;;5039134;28;19936;-69
2022/06/11 11:48:27;;;;;;;;;;;24.30;54.80;;;;;;5035815;28;19928;-68
2022/06/11 11:50:55;;;;;;;;;;;24.30;54.60;;;;;;5041904;28;19932;-68
2022/06/11 11:53:23;;;;;;;;;;;24.40;54.20;;;;;;5045879;28;19994;-69
2022/06/11 11:55:55;;;;;;;;;;;24.50;53.90;;;;;;5045478;28;19929;-69
2022/06/11 11:58:26;;;;;;;;;;;24.60;53.50;;;;;;5045779;28;19939;-67
2022/06/11 12:00:54;;;;;;;;;;;24.60;54.00;;;;;;5045378;28;19929;-68
2022/06/11 12:03:24;;;;;;;;;;;24.70;54.00;;;;;;5041347;28;19971;-69
2022/06/11 12:05:52;;;;;;;;;;;24.70;53.60;;;;;;5045856;28;19929;-69
2022/06/11 12:08:21;;;;;;;;;;;24.80;52.90;;;;;;5042792;28;19933;-68
2022/06/11 12:10:48;;;;;;;;;;;24.80;53.30;;;;;;5045773;28;19932;-70
2022/06/11 12:13:20;;;;;;;;;;;24.90;53.20;;;;;;5045009;28;20547;-68
2022/06/11 12:15:52;;;;;;;;;;;25.00;52.60;;;;;;5044610;28;19925;-67
2022/06/11 12:18:21;;;;;;;;;;;25.00;53.10;;;;;;5044325;28;19924;-69
2022/06/11 12:20:49;;;;;;;;;;;25.10;52.90;;;;;;5041713;28;20024;-70
2022/06/11 12:23:23;;;;;;;;;;;25.10;52.50;;;;;;5045778;28;19935;-69
2022/06/11 12:25:52;;;;;;;;;;;25.20;52.50;;;;;;5045176;28;20019;-69
2022/06/11 12:28:21;;;;;;;;;;;25.20;52.40;;;;;;5037544;28;19929;-67
2022/06/11 12:30:48;;;;;;;;;;;25.30;52.20;;;;;;5039213;28;20356;-70
2022/06/11 12:33:17;;;;;;;;;;;25.40;52.30;;;;;;5041645;28;20034;-67
2022/06/11 12:35:48;;;;;;;;;;;25.40;52.30;;;;;;5044511;28;19936;-68
2022/06/11 12:38:16;;;;;;;;;;;25.40;52.10;;;;;;5033576;28;19979;-67
2022/06/11 12:40:47;;;;;;;;;;;25.50;52.00;;;;;;5033833;28;19932;-66
2022/06/11 12:43:23;;;;;;;;;;;25.50;51.40;;;;;;5031318;28;19936;-67
2022/06/11 12:45:54;;;;;;;;;;;25.60;51.60;;;;;;5042588;28;19929;-68
2022/06/11 12:48:31;;;;;;;;;;;25.70;51.90;;;;;;5039492;28;19929;-69
2022/06/11 12:51:03;;;;;;;;;;;25.70;51.60;;;;;;5042365;28;19929;-68
2022/06/11 12:53:47;;;;;;;;;;;25.80;51.40;;;;;;5044857;28;19935;-68
2022/06/11 12:56:21;;;;;;;;;;;25.90;50.70;;;;;;5028354;28;19987;-68
2022/06/11 12:59:02;;;;;;;;;;;25.90;50.60;;;;;;5043479;28;19932;-67
2022/06/11 13:01:31;;;;;;;;;;;26.00;51.00;;;;;;5036167;28;19928;-68
2022/06/11 13:04:21;;;;;;;;;;;26.00;50.90;;;;;;5038567;28;20373;-69
2022/06/11 13:06:52;;;;;;;;;;;26.10;50.90;;;;;;5043923;28;19932;-70
2022/06/11 13:09:26;;;;;;;;;;;26.20;50.00;;;;;;5044183;28;19983;-68
2022/06/11 13:11:59;;;;;;;;;;;26.20;50.40;;;;;;5036716;28;19928;-70
2022/06/11 13:14:38;;;;;;;;;;;26.30;50.30;;;;;;5044382;28;19933;-69
2022/06/11 13:17:10;;;;;;;;;;;26.30;50.40;;;;;;5044067;28;19932;-68
2022/06/11 13:19:42;;;;;;;;;;;26.30;49.80;;;;;;5042481;28;19929;-68
2022/06/11 13:22:13;;;;;;;;;;;26.40;49.70;;;;;;5043326;28;19929;-69
2022/06/11 13:24:42;;;;;;;;;;;26.50;49.90;;;;;;5040979;28;19929;-71
2022/06/11 13:27:13;;;;;;;;;;;26.50;49.80;;;;;;5043879;28;20639;-72
2022/06/11 13:29:48;;;;;;;;;;;26.60;49.80;;;;;;5043794;28;19929;-72
2022/06/11 13:32:18;;;;;;;;;;;26.70;49.80;;;;;;5036555;28;20304;-69
2022/06/11 13:34:50;;;;;;;;;;;26.70;49.70;;;;;;5040872;28;19944;-68
2022/06/11 13:37:23;;;;;;;;;;;26.80;49.70;;;;;;5038281;28;19994;-67
2022/06/11 13:40:01;;;;;;;;;;;26.80;49.50;;;;;;5032814;28;19932;-68
2022/06/11 13:42:32;;;;;;;;;;;26.90;49.40;;;;;;5037945;28;19932;-72
2022/06/11 13:45:18;;;;;;;;;;;27.00;49.30;;;;;;5040487;28;19982;-68
2022/06/11 13:47:51;;;;;;;;;;;27.10;49.10;;;;;;5040019;28;19933;-70
2022/06/11 13:50:41;;;;;;;;;;;27.10;48.60;;;;;;5039076;28;19940;-70
2022/06/11 13:56:00;;;;;;;;;;;27.30;49.00;;;;;;5041631;28;20071;-70
2022/06/11 13:58:34;;;;;;;;;;;27.30;48.60;;;;;;5043668;28;19929;-67
2022/06/11 14:01:15;;;;;;;;;;;27.30;48.50;;;;;;5042987;28;19929;-72
2022/06/11 14:04:01;;;;;;;;;;;27.40;48.10;;;;;;5039272;28;19928;-68
2022/06/11 14:06:28;;;;;;;;;;;27.50;48.50;;;;;;5039156;28;19936;-69
2022/06/11 14:10:20;;;;;;;;;;;27.50;48.10;;;;;;5043526;28;20507;-68
2022/06/11 14:11:54;;;;;;;;;;;27.60;47.60;;;;;;5042818;28;20422;-68
2022/06/11 14:14:35;;;;;;;;;;;27.70;47.90;;;;;;5042536;28;20376;-67
2022/06/11 14:17:02;;;;;;;;;;;27.70;47.80;;;;;;5038801;28;19937;-69
2022/06/11 14:19:40;;;;;;;;;;;27.80;47.40;;;;;;5040399;28;20041;-68
2022/06/11 14:22:26;;;;;;;;;;;27.90;47.30;;;;;;5042086;28;19957;-68
2022/06/11 14:25:00;;;;;;;;;;;27.90;46.50;;;;;;5042515;28;20610;-69
2022/06/11 14:27:34;;;;;;;;;;;28.00;46.60;;;;;;5043129;28;19968;-70
2022/06/11 14:30:04;;;;;;;;;;;28.10;46.80;;;;;;5036345;28;19982;-72
2022/06/11 14:32:32;;;;;;;;;;;28.10;46.90;;;;;;5042028;28;20381;-69
2022/06/11 14:35:00;;;;;;;;;;;28.20;46.90;;;;;;5042995;28;19935;-68